Time;durP1;ratioP1;P1;durP2;ratioP2;P2;SDS_P1;SDS_P2;PMS_P1;PMS_P2;Temp;Humidity;BMP_temperature;BMP_pressure;BME280_temperature;BME280_humidity;BME280_pressure;Samples;Min_cycle;Max_cycle;Signal;HPM_P1;HPM_P2
2023/06/11 00:01:41;;;;;;;;;33.67;30.00;;;;;17.68;100.00;99188.38;6280663;20;3584684;-49
2023/06/11 00:04:12;;;;;;;;;33.00;30.00;;;;;17.64;100.00;99193.28;6282853;20;3602427;-45
2023/06/11 00:06:41;;;;;;;;;29.67;28.33;;;;;17.66;100.00;99196.66;6278475;20;3592975;-48
2023/06/11 00:09:09;;;;;;;;;33.33;30.00;;;;;17.70;100.00;99197.22;6282238;20;3604443;-48
2023/06/11 00:11:41;;;;;;;;;35.00;30.00;;;;;17.60;100.00;99196.44;6277095;20;3597165;-46
2023/06/11 00:14:10;;;;;;;;;30.33;30.00;;;;;17.65;100.00;99202.25;6277834;20;3575266;-49
2023/06/11 00:16:40;;;;;;;;;39.50;29.75;;;;;17.69;100.00;99200.94;6277159;20;3606576;-50
2023/06/11 00:19:09;;;;;;;;;34.33;29.67;;;;;17.64;100.00;99197.81;6312482;20;3596084;-49
2023/06/11 00:21:43;;;;;;;;;33.00;28.33;;;;;17.64;100.00;99201.41;6278115;20;3585740;-46
2023/06/11 00:24:14;;;;;;;;;37.67;32.00;;;;;17.65;100.00;99205.81;6276198;20;3611960;-47
2023/06/11 00:26:43;;;;;;;;;38.25;32.00;;;;;17.56;100.00;99204.00;6311224;20;3607569;-48
2023/06/11 00:29:12;;;;;;;;;35.33;31.67;;;;;17.60;100.00;99197.28;6311199;20;3595214;-48
2023/06/11 00:31:40;;;;;;;;;29.00;28.67;;;;;17.63;100.00;99202.41;6279086;20;3578392;-49
2023/06/11 00:34:08;;;;;;;;;35.33;31.67;;;;;17.62;100.00;99203.41;6279190;20;3598204;-45
2023/06/11 00:36:40;;;;;;;;;38.75;33.00;;;;;17.58;100.00;99204.72;6281338;20;3624345;-49
2023/06/11 00:39:09;;;;;;;;;35.33;31.00;;;;;17.58;100.00;99204.72;6312512;20;3604409;-48
2023/06/11 00:41:45;;;;;;;;;39.00;31.25;;;;;17.56;100.00;99206.72;6279993;20;3624264;-50
2023/06/11 00:44:21;;;;;;;;;34.67;31.33;;;;;17.59;100.00;99205.56;6307113;20;3588945;-46
2023/06/11 00:46:52;;;;;;;;;33.67;30.33;;;;;17.60;100.00;99205.44;6279042;20;3579532;-46
2023/06/11 00:49:23;;;;;;;;;38.00;32.50;;;;;17.56;100.00;99201.28;6283546;20;3611786;-47
2023/06/11 00:51:52;;;;;;;;;37.33;32.00;;;;;17.58;100.00;99203.88;6308767;20;3598626;-49
2023/06/11 00:54:20;;;;;;;;;37.00;33.00;;;;;17.51;100.00;99200.91;6277308;20;3616974;-51
2023/06/11 00:56:49;;;;;;;;;35.00;33.00;;;;;17.40;100.00;99192.94;6277531;20;3596253;-50
2023/06/11 00:59:17;;;;;;;;;34.00;32.00;;;;;17.45;100.00;99196.91;6280681;20;3593982;-52
2023/06/11 01:02:05;;;;;;;;;34.00;31.00;;;;;17.49;100.00;99200.22;6278011;20;3599318;-46
2023/06/11 01:04:35;;;;;;;;;32.00;29.00;;;;;17.52;100.00;99199.91;6278688;20;3586885;-49
2023/06/11 01:07:07;;;;;;;;;35.33;31.67;;;;;17.38;100.00;99203.97;6279385;20;3589895;-48
2023/06/11 01:09:43;;;;;;;;;35.67;32.67;;;;;17.39;100.00;99204.81;6280339;20;3609644;-46
2023/06/11 01:12:12;;;;;;;;;33.33;30.67;;;;;17.28;100.00;99208.59;6280550;20;3584782;-44
2023/06/11 01:14:42;;;;;;;;;37.50;32.50;;;;;17.44;100.00;99199.81;6275599;20;2841955;-47
2023/06/11 01:17:29;;;;;;;;;34.00;30.67;;;;;17.41;100.00;99205.53;6276380;20;2852450;-46
2023/06/11 01:20:16;;;;;;;;;38.00;34.00;;;;;17.42;100.00;99199.09;6309030;20;3488856;-49
2023/06/11 01:23:31;;;;;;;;;36.50;32.50;;;;;17.41;100.00;99208.25;6309380;20;3601354;-47
2023/06/11 01:26:29;;;;;;;;;38.67;34.00;;;;;17.32;100.00;99194.56;6307957;20;3604468;-48
2023/06/11 01:29:01;;;;;;;;;36.00;31.00;;;;;17.23;100.00;99200.03;6275440;20;3596382;-45
2023/06/11 01:31:32;;;;;;;;;32.33;30.00;;;;;17.25;100.00;99203.47;6276958;20;3597156;-45
2023/06/11 01:34:01;;;;;;;;;39.33;34.33;;;;;17.23;100.00;99209.03;6277479;20;3589855;-45
2023/06/11 01:36:34;;;;;;;;;35.67;32.67;;;;;17.16;100.00;99210.59;6281359;20;3594011;-47
2023/06/11 01:39:04;;;;;;;;;34.00;32.00;;;;;17.24;100.00;99209.88;6270929;20;3598216;-49
2023/06/11 01:41:32;;;;;;;;;40.67;33.00;;;;;17.23;100.00;99210.88;6309945;20;3615969;-47
2023/06/11 01:44:00;;;;;;;;;41.00;34.00;;;;;17.09;100.00;99204.09;6275495;20;3578586;-45
2023/06/11 01:46:29;;;;;;;;;42.00;36.00;;;;;17.10;100.00;99211.22;6274562;20;2843134;-48
2023/06/11 01:48:57;;;;;;;;;37.00;34.00;;;;;17.04;100.00;99211.81;6307523;20;3611807;-45
2023/06/11 01:51:26;;;;;;;;;38.00;32.67;;;;;17.01;100.00;99210.25;6276214;20;3608574;-46
2023/06/11 01:53:56;;;;;;;;;37.00;32.67;;;;;17.02;100.00;99213.81;6275798;20;3594041;-46
2023/06/11 01:56:26;;;;;;;;;35.33;31.67;;;;;16.97;100.00;99216.97;6274602;20;3600290;-47
2023/06/11 01:58:57;;;;;;;;;38.00;33.67;;;;;17.02;100.00;99216.53;6309465;20;3607632;-45
2023/06/11 02:01:28;;;;;;;;;38.00;34.33;;;;;16.93;100.00;99214.69;6277771;20;3592033;-46
2023/06/11 02:03:58;;;;;;;;;34.67;30.67;;;;;16.88;100.00;99216.00;6271086;20;2858147;-47
2023/06/11 02:06:26;;;;;;;;;37.67;33.33;;;;;16.91;100.00;99222.97;6308419;20;3599239;-47
2023/06/11 02:08:54;;;;;;;;;36.67;32.00;;;;;16.93;100.00;99217.38;6277756;20;3610852;-44
2023/06/11 02:11:22;;;;;;;;;39.00;33.00;;;;;17.13;100.00;99219.06;6278469;20;3566010;-47
2023/06/11 02:13:51;;;;;;;;;39.00;35.00;;;;;17.02;100.00;99219.25;6270314;20;2840709;-48
2023/06/11 02:16:20;;;;;;;;;36.33;32.33;;;;;17.03;100.00;99219.06;6308156;20;3600256;-48
2023/06/11 02:18:48;;;;;;;;;36.00;33.00;;;;;17.04;100.00;99222.66;6275466;20;2841904;-50
2023/06/11 02:21:17;;;;;;;;;42.67;35.33;;;;;16.90;100.00;99221.25;6274592;20;3595468;-45
2023/06/11 02:23:45;;;;;;;;;36.33;33.00;;;;;16.96;100.00;99220.69;6310236;20;3605503;-48
2023/06/11 02:26:14;;;;;;;;;36.00;31.67;;;;;17.05;100.00;99229.78;6277249;20;3590989;-46
2023/06/11 02:28:43;;;;;;;;;38.75;32.25;;;;;17.10;100.00;99222.06;6279335;20;3612777;-46
2023/06/11 02:31:11;;;;;;;;;33.67;31.33;;;;;17.05;100.00;99218.94;6308715;20;3587767;-46
2023/06/11 02:33:39;;;;;;;;;39.67;35.33;;;;;17.05;100.00;99213.50;6276942;20;3582545;-47
2023/06/11 02:36:07;;;;;;;;;40.00;34.00;;;;;16.97;100.00;99216.09;6277146;20;3580560;-46
2023/06/11 02:38:38;;;;;;;;;38.67;32.67;;;;;16.88;100.00;99220.56;6274736;20;3610734;-46
2023/06/11 02:41:06;;;;;;;;;36.33;32.33;;;;;16.94;100.00;99219.97;6274320;20;3612970;-47
2023/06/11 02:43:35;;;;;;;;;43.67;36.00;;;;;17.04;100.00;99219.94;6275270;20;3602370;-46
2023/06/11 02:46:04;;;;;;;;;42.67;35.67;;;;;17.00;100.00;99218.53;6271371;20;2847239;-47
2023/06/11 02:48:32;;;;;;;;;38.33;32.67;;;;;16.74;100.00;99221.81;6308045;20;3598186;-45
2023/06/11 02:51:00;;;;;;;;;37.67;33.00;;;;;16.83;100.00;99214.72;6275046;20;3598190;-43
2023/06/11 02:53:29;;;;;;;;;40.33;34.33;;;;;16.82;100.00;99218.41;6273792;20;3594228;-45
2023/06/11 02:55:58;;;;;;;;;40.00;32.67;;;;;16.79;100.00;99219.56;6307216;20;3608782;-47
2023/06/11 02:58:26;;;;;;;;;38.33;33.33;;;;;16.59;100.00;99217.88;6275368;20;3602541;-46
2023/06/11 03:00:54;;;;;;;;;38.33;34.00;;;;;16.76;100.00;99222.53;6279010;20;3591966;-47
2023/06/11 03:03:23;;;;;;;;;37.33;31.00;;;;;16.83;100.00;99222.84;6273503;20;3612806;-46
2023/06/11 03:05:51;;;;;;;;;37.00;32.33;;;;;16.85;100.00;99223.53;6274157;20;3595047;-46
2023/06/11 03:08:20;;;;;;;;;37.00;33.00;;;;;17.00;100.00;99226.66;6279743;20;3602500;-47
2023/06/11 03:10:49;;;;;;;;;40.00;31.50;;;;;16.82;100.00;99224.69;6282776;20;3623267;-45
2023/06/11 03:13:17;;;;;;;;;32.33;31.33;;;;;17.00;100.00;99222.09;6314324;20;3593089;-45
2023/06/11 03:15:46;;;;;;;;;38.67;33.33;;;;;16.95;100.00;99223.53;6278015;20;3601470;-48
2023/06/11 03:18:15;;;;;;;;;36.00;32.00;;;;;17.03;100.00;99216.34;6312899;20;3598221;-48
2023/06/11 03:20:43;;;;;;;;;35.33;32.00;;;;;17.06;100.00;99224.22;6281114;20;3599270;-46
2023/06/11 03:23:13;;;;;;;;;35.33;32.00;;;;;17.04;100.00;99230.81;6285906;20;3598187;-45
2023/06/11 03:25:43;;;;;;;;;34.33;29.67;;;;;17.06;100.00;99228.78;6277796;20;3594098;-50
2023/06/11 03:28:11;;;;;;;;;36.67;32.00;;;;;17.03;100.00;99231.78;6280599;20;3579446;-50
2023/06/11 03:30:42;;;;;;;;;39.00;34.33;;;;;17.03;100.00;99237.22;6281836;20;3572156;-49
2023/06/11 03:33:11;;;;;;;;;38.50;35.00;;;;;16.97;100.00;99226.97;6279614;20;2834648;-50
2023/06/11 03:35:40;;;;;;;;;37.67;33.00;;;;;16.86;100.00;99236.97;6275026;20;3596219;-45
2023/06/11 03:38:09;;;;;;;;;35.25;32.75;;;;;16.94;100.00;99238.09;6314237;20;3601456;-48
2023/06/11 03:40:37;;;;;;;;;37.00;33.67;;;;;16.96;100.00;99242.38;6310864;20;3584714;-48
2023/06/11 03:43:05;;;;;;;;;33.67;32.00;;;;;16.92;100.00;99242.81;6281042;20;3581577;-46
2023/06/11 03:45:33;;;;;;;;;35.33;31.00;;;;;16.99;100.00;99241.22;6276168;20;3581650;-47
2023/06/11 03:48:04;;;;;;;;;35.33;31.00;;;;;16.98;100.00;99234.06;6278805;20;3591007;-49
2023/06/11 03:50:32;;;;;;;;;33.33;30.67;;;;;17.02;100.00;99236.34;6280407;20;3579430;-48
2023/06/11 03:53:01;;;;;;;;;30.67;30.33;;;;;17.06;100.00;99226.94;6278055;20;3587848;-46
2023/06/11 03:55:30;;;;;;;;;32.33;31.00;;;;;17.18;100.00;99232.19;6274669;20;2852450;-48
2023/06/11 03:57:58;;;;;;;;;34.33;31.67;;;;;17.05;100.00;99236.06;6311543;20;3604132;-49
2023/06/11 04:00:30;;;;;;;;;25.00;25.00;;;;;17.18;100.00;99235.75;6279923;20;3600313;-46
2023/06/11 04:02:59;;;;;;;;;33.67;31.00;;;;;17.19;100.00;99237.44;6277911;20;3600481;-50
2023/06/11 04:05:28;;;;;;;;;33.33;30.33;;;;;17.14;100.00;99241.59;6277565;20;3593994;-49
2023/06/11 04:07:57;;;;;;;;;32.33;30.67;;;;;17.34;100.00;99241.38;6276830;20;2840918;-50
2023/06/11 04:10:25;;;;;;;;;31.00;28.00;;;;;17.36;100.00;99240.41;6310402;20;3574285;-47
2023/06/11 04:12:53;;;;;;;;;31.00;28.00;;;;;17.55;100.00;99243.03;6280374;20;3591022;-49
2023/06/11 04:15:22;;;;;;;;;31.33;29.00;;;;;17.69;100.00;99245.25;6276640;20;3586702;-52
2023/06/11 04:17:50;;;;;;;;;29.50;29.50;;;;;17.67;100.00;99239.13;6274980;20;2849256;-47
2023/06/11 04:20:18;;;;;;;;;26.33;25.67;;;;;17.73;100.00;99241.22;6278764;20;3595062;-46
2023/06/11 04:22:46;;;;;;;;;29.67;28.00;;;;;17.89;100.00;99240.59;6278365;20;3588923;-47
2023/06/11 04:25:16;;;;;;;;;31.33;28.67;;;;;18.08;100.00;99244.19;6277378;20;3598323;-48
2023/06/11 04:27:47;;;;;;;;;30.75;26.00;;;;;18.23;100.00;99241.81;6278119;20;3610743;-48
2023/06/11 04:30:16;;;;;;;;;27.33;26.33;;;;;18.26;100.00;99247.78;6309176;20;3603520;-47
2023/06/11 04:32:44;;;;;;;;;29.67;27.67;;;;;18.41;100.00;99251.66;6271773;20;3577534;-48
2023/06/11 04:35:13;;;;;;;;;28.00;28.00;;;;;18.61;100.00;99249.63;6276895;20;3590011;-48
2023/06/11 04:37:43;;;;;;;;;22.67;21.33;;;;;19.02;100.00;99247.28;6280241;20;3583598;-49
2023/06/11 04:40:11;;;;;;;;;25.00;22.67;;;;;18.97;100.00;99246.88;6278907;20;3587748;-48
2023/06/11 04:42:40;;;;;;;;;25.00;23.00;;;;;18.99;100.00;99247.59;6279244;20;3583623;-47
2023/06/11 04:45:10;;;;;;;;;28.33;26.67;;;;;19.36;100.00;99246.47;6274628;20;3609697;-52
2023/06/11 04:47:40;;;;;;;;;24.67;22.67;;;;;19.17;100.00;99241.22;6279122;20;3589833;-50
2023/06/11 04:50:08;;;;;;;;;22.67;22.00;;;;;19.10;100.00;99243.75;6276344;20;3583683;-48
2023/06/11 04:52:42;;;;;;;;;21.67;19.67;;;;;19.08;100.00;99252.06;6273417;20;3573318;-48
2023/06/11 04:55:11;;;;;;;;;19.00;19.00;;;;;18.93;100.00;99248.25;6276806;20;3568054;-47
2023/06/11 04:57:40;;;;;;;;;20.33;20.33;;;;;19.17;100.00;99246.66;6275808;20;3577357;-47
2023/06/11 05:00:10;;;;;;;;;23.33;21.00;;;;;19.27;100.00;99247.41;6280216;20;3573166;-49
2023/06/11 05:02:44;;;;;;;;;21.67;21.33;;;;;19.25;100.00;99254.91;6278581;20;3587805;-48
2023/06/11 05:05:12;;;;;;;;;21.33;21.00;;;;;19.27;100.00;99247.41;6275741;20;3581588;-49
2023/06/11 05:07:42;;;;;;;;;20.00;20.00;;;;;19.21;100.00;99254.38;6279274;20;3579422;-46
2023/06/11 05:10:10;;;;;;;;;20.67;20.00;;;;;19.12;100.00;99246.31;6280892;20;3574230;-48
2023/06/11 05:12:38;;;;;;;;;23.00;22.00;;;;;19.07;100.00;99250.38;6276413;20;3564892;-51
2023/06/11 05:15:07;;;;;;;;;21.67;19.33;;;;;18.97;100.00;99246.88;6273895;20;3566039;-48
2023/06/11 05:17:36;;;;;;;;;21.00;18.67;;;;;19.04;100.00;99245.25;6280718;20;3570138;-50
2023/06/11 05:20:05;;;;;;;;;20.33;18.67;;;;;19.10;100.00;99251.91;6277075;20;3571138;-52
2023/06/11 05:22:34;;;;;;;;;19.00;19.00;;;;;19.24;100.00;99253.19;6274785;20;2831492;-52
2023/06/11 05:25:03;;;;;;;;;18.67;17.33;;;;;19.43;100.00;99250.25;6276040;20;3563991;-53
2023/06/11 05:27:31;;;;;;;;;20.33;18.00;;;;;19.47;100.00;99250.78;6310388;20;3583732;-51
2023/06/11 05:30:00;;;;;;;;;21.50;21.50;;;;;19.50;100.00;99262.19;6276904;20;2839065;-49
2023/06/11 05:32:31;;;;;;;;;22.00;20.00;;;;;19.67;100.00;99260.44;6275127;20;2838938;-49
2023/06/11 05:34:59;;;;;;;;;20.67;19.67;;;;;19.71;99.98;99256.34;6279402;20;3581524;-50
2023/06/11 05:37:27;;;;;;;;;20.00;18.67;;;;;20.16;99.30;99270.66;6278628;20;3563842;-46
2023/06/11 05:39:56;;;;;;;;;19.50;19.50;;;;;20.07;100.00;99266.22;6274233;20;2837909;-47
2023/06/11 05:42:24;;;;;;;;;19.00;17.67;;;;;20.30;97.76;99272.75;6280446;20;3553490;-49
2023/06/11 05:44:52;;;;;;;;;20.00;17.00;;;;;20.50;96.59;99280.63;6271276;20;2841965;-46
2023/06/11 05:47:20;;;;;;;;;19.33;16.67;;;;;20.49;96.13;99279.78;6280331;20;3571109;-50
2023/06/11 05:49:49;;;;;;;;;19.00;15.33;;;;;20.49;93.49;99281.66;6283923;20;2828509;-48
2023/06/11 05:52:17;;;;;;;;;16.00;16.00;;;;;20.88;93.57;99281.00;6306419;20;2829730;-51
2023/06/11 05:54:46;;;;;;;;;18.33;18.00;;;;;21.12;92.34;99282.91;6276508;20;3574324;-50
2023/06/11 05:57:24;;;;;;;;;15.00;15.00;;;;;21.25;90.28;99286.81;6275524;20;2803748;-47
2023/06/11 05:59:53;;;;;;;;;18.00;18.00;;;;;21.42;90.38;99284.91;6276984;20;2824306;-53
2023/06/11 06:02:21;;;;;;;;;15.67;15.67;;;;;21.55;91.01;99283.53;6281490;20;3550352;-55
2023/06/11 06:04:49;;;;;;;;;14.67;14.67;;;;;21.99;88.55;99297.53;6307237;20;3533589;-50
2023/06/11 06:07:18;;;;;;;;;10.67;10.00;;;;;22.05;86.02;99290.50;6309258;20;2489905;-50
2023/06/11 06:09:46;;;;;;;;;14.33;14.00;;;;;21.87;85.89;99298.94;6312249;20;2791994;-51
2023/06/11 06:12:15;;;;;;;;;14.00;14.00;;;;;22.00;86.16;99293.78;6308802;20;3533728;-53
2023/06/11 06:14:43;;;;;;;;;10.00;9.00;;;;;22.01;86.55;99294.63;6273691;20;2768052;-48
2023/06/11 06:17:11;;;;;;;;;15.33;14.00;;;;;21.51;85.40;99293.09;6311514;20;3536731;-51
2023/06/11 06:19:39;;;;;;;;;14.67;14.67;;;;;21.58;85.90;99303.13;6311150;20;3527477;-50
2023/06/11 06:22:07;;;;;;;;;14.50;14.50;;;;;22.27;86.27;99303.41;6307961;20;2814929;-49
2023/06/11 06:24:35;;;;;;;;;13.33;13.33;;;;;22.40;86.17;99297.34;6279050;20;2483696;-51
2023/06/11 06:27:04;;;;;;;;;16.00;16.00;;;;;22.57;84.09;99300.84;6309177;20;3559053;-48
2023/06/11 06:29:32;;;;;;;;;15.67;15.67;;;;;22.45;82.98;99300.41;6276493;20;3556646;-49
2023/06/11 06:32:01;;;;;;;;;15.67;14.67;;;;;22.16;83.74;99305.66;6310501;20;3537903;-49
2023/06/11 06:34:29;;;;;;;;;16.33;15.00;;;;;22.84;81.09;99306.81;6304222;20;2487797;-52
2023/06/11 06:36:57;;;;;;;;;17.67;16.00;;;;;22.72;82.25;99312.72;6312704;20;3561779;-50
2023/06/11 06:39:25;;;;;;;;;18.00;16.00;;;;;23.06;81.38;99308.72;6273955;20;2829586;-49
2023/06/11 06:41:53;;;;;;;;;14.67;14.67;;;;;23.35;80.35;99315.31;6277422;20;3531479;-45
2023/06/11 06:44:21;;;;;;;;;15.33;15.33;;;;;23.96;78.90;99323.41;6307120;20;3542980;-47
2023/06/11 06:46:50;;;;;;;;;17.00;15.67;;;;;23.41;80.51;99315.41;6308782;20;3553533;-51
2023/06/11 06:49:18;;;;;;;;;17.00;16.33;;;;;23.22;79.39;99316.81;6311074;20;3569055;-48
2023/06/11 06:51:46;;;;;;;;;12.67;12.67;;;;;23.43;77.70;99317.97;6278094;20;3536841;-47
2023/06/11 06:54:16;;;;;;;;;16.00;15.00;;;;;23.44;78.85;99315.03;6308903;20;3546328;-49
2023/06/11 06:56:44;;;;;;;;;17.33;16.33;;;;;23.68;77.71;99321.31;6275732;20;3561725;-51
2023/06/11 06:59:13;;;;;;;;;15.00;15.00;;;;;24.45;73.89;99312.69;6274335;20;2799313;-49
2023/06/11 07:01:41;;;;;;;;;16.33;14.67;;;;;24.70;72.83;99320.59;6274347;20;3540900;-50
2023/06/11 07:04:09;;;;;;;;;13.00;13.00;;;;;24.75;73.99;99318.94;6274543;20;3539867;-47
2023/06/11 07:06:42;;;;;;;;;15.00;14.00;;;;;24.83;72.13;99320.72;6271698;20;3532658;-51
2023/06/11 07:09:10;;;;;;;;;13.33;13.33;;;;;24.02;72.35;99323.50;6273183;20;3501301;-50
2023/06/11 07:11:38;;;;;;;;;13.50;11.50;;;;;24.97;69.54;99332.69;6276354;20;3469055;-52
2023/06/11 07:14:06;;;;;;;;;12.67;12.67;;;;;25.00;70.92;99326.78;6308718;20;3524398;-47
2023/06/11 07:16:35;;;;;;;;;15.00;14.67;;;;;24.90;68.21;99334.50;6310408;20;3541959;-53
2023/06/11 07:19:03;;;;;;;;;13.33;13.33;;;;;25.25;70.53;99326.41;6304366;20;3531631;-49
2023/06/11 07:21:35;;;;;;;;;10.33;10.33;;;;;24.92;68.07;99330.50;6275834;20;3531757;-53
2023/06/11 07:24:05;;;;;;;;;12.00;12.00;;;;;24.56;69.60;99330.53;6278670;20;3507574;-54
2023/06/11 07:26:34;;;;;;;;;11.33;11.33;;;;;24.31;66.30;99328.09;6313290;20;2781544;-50
2023/06/11 07:29:02;;;;;;;;;11.67;11.67;;;;;25.13;66.89;99332.41;6303990;20;3507565;-51
2023/06/11 07:31:30;;;;;;;;;15.00;14.50;;;;;25.22;67.74;99329.53;6305207;20;2812807;-51
2023/06/11 07:33:58;;;;;;;;;12.00;12.00;;;;;24.81;69.42;99330.19;6272513;20;3522249;-52
2023/06/11 07:36:26;;;;;;;;;9.00;9.00;;;;;25.44;69.38;99328.47;6280872;20;2764896;-49
2023/06/11 07:38:55;;;;;;;;;12.00;12.00;;;;;25.39;67.37;99330.97;6306007;20;2483633;-53
2023/06/11 07:41:23;;;;;;;;;12.67;12.67;;;;;25.51;67.83;99334.84;6304588;20;3514202;-51
2023/06/11 07:43:52;;;;;;;;;14.00;11.00;;;;;25.26;69.18;99336.34;6273257;20;3522258;-48
2023/06/11 07:46:20;;;;;;;;;11.00;11.00;;;;;24.87;66.36;99332.16;6302425;20;3514845;-49
2023/06/11 07:48:48;;;;;;;;;12.33;12.00;;;;;24.96;66.84;99337.31;6271862;20;3533655;-51
2023/06/11 07:51:19;;;;;;;;;14.33;13.33;;;;;25.53;63.92;99330.00;6276188;20;2483673;-49
2023/06/11 07:53:49;;;;;;;;;11.67;10.00;;;;;24.57;66.25;99337.75;6307939;20;3518018;-51
2023/06/11 07:56:17;;;;;;;;;13.33;12.33;;;;;23.79;69.12;99329.09;6279389;20;3528433;-48
2023/06/11 07:58:45;;;;;;;;;10.00;10.00;;;;;23.56;71.38;99336.50;6283565;20;2789843;-50
2023/06/11 08:01:13;;;;;;;;;13.00;13.00;;;;;23.18;71.17;99328.31;6312029;20;3529421;-51
2023/06/11 08:03:42;;;;;;;;;10.00;10.00;;;;;23.92;71.52;99341.31;6279702;20;3510382;-51
2023/06/11 08:06:10;;;;;;;;;13.00;12.00;;;;;23.94;70.36;99344.72;6310086;20;3510694;-47
2023/06/11 08:08:39;;;;;;;;;9.33;9.33;;;;;23.90;70.38;99344.22;6309601;20;3481514;-47
2023/06/11 08:11:07;;;;;;;;;12.33;12.33;;;;;23.62;70.92;99344.00;6314837;20;3522191;-49
2023/06/11 08:13:35;;;;;;;;;16.00;13.00;;;;;23.78;70.50;99337.53;6313335;20;3551404;-46
2023/06/11 08:16:03;;;;;;;;;12.00;10.33;;;;;24.04;69.76;99348.00;6313190;20;2793041;-51
2023/06/11 08:18:31;;;;;;;;;13.00;11.00;;;;;24.56;70.72;99352.50;6308588;20;3513862;-51
2023/06/11 08:21:00;;;;;;;;;12.00;10.67;;;;;25.25;68.06;99352.00;6312565;20;2483622;-51
2023/06/11 08:23:28;;;;;;;;;12.33;12.33;;;;;25.68;65.99;99351.06;6309766;20;3516214;-50
2023/06/11 08:25:58;;;;;;;;;11.00;11.00;;;;;25.97;64.98;99356.38;6277571;20;3516984;-59
2023/06/11 08:28:28;;;;;;;;;14.33;13.00;;;;;25.98;65.57;99352.56;6278805;20;3527379;-59
2023/06/11 08:30:56;;;;;;;;;11.67;11.67;;;;;25.62;65.76;99361.81;6276408;20;3512780;-59
2023/06/11 08:33:25;;;;;;;;;11.00;11.00;;;;;25.53;65.34;99359.41;6311790;20;2485774;-58
2023/06/11 08:35:53;;;;;;;;;12.33;12.33;;;;;25.73;66.43;99359.56;6307327;20;3536708;-58
2023/06/11 08:38:21;;;;;;;;;14.00;12.33;;;;;25.74;66.59;99361.25;6288652;20;2789870;-59
2023/06/11 08:40:49;;;;;;;;;11.33;11.33;;;;;25.40;64.36;99365.66;6314617;20;3519061;-58
2023/06/11 08:43:17;;;;;;;;;10.00;10.00;;;;;25.94;64.41;99367.78;6311075;20;3515041;-58
2023/06/11 08:45:46;;;;;;;;;10.00;10.00;;;;;26.35;65.47;99358.69;6274471;20;3513804;-59
2023/06/11 08:48:19;;;;;;;;;10.67;10.00;;;;;26.46;64.05;99358.13;6308108;20;3509346;-59
2023/06/11 08:50:51;;;;;;;;;8.67;8.67;;;;;26.03;63.59;99366.56;6308203;20;3488917;-59
2023/06/11 08:53:19;;;;;;;;;11.67;11.33;;;;;25.79;64.25;99364.25;6310446;20;2483626;-59
2023/06/11 08:55:48;;;;;;;;;11.00;11.00;;;;;25.03;64.99;99364.84;6305516;20;3505527;-58
2023/06/11 08:58:20;;;;;;;;;11.33;11.33;;;;;25.41;65.81;99370.13;6309513;20;2484129;-59
2023/06/11 09:00:48;;;;;;;;;12.00;12.00;;;;;25.68;65.05;99365.66;6308036;20;3517966;-59
2023/06/11 09:03:17;;;;;;;;;11.67;11.67;;;;;25.79;66.19;99372.50;6282294;20;3507669;-59
2023/06/11 09:05:47;;;;;;;;;13.67;12.67;;;;;25.32;64.68;99357.53;6304541;20;3528613;-58
2023/06/11 09:08:15;;;;;;;;;11.67;11.67;;;;;25.47;68.29;99366.56;6274232;20;3505529;-59
2023/06/11 09:10:51;;;;;;;;;9.00;9.00;;;;;25.24;66.70;99361.28;6277865;20;3482633;-59
2023/06/11 09:13:21;;;;;;;;;8.00;8.00;;;;;25.54;68.38;99361.09;6308210;20;2749490;-59
2023/06/11 09:15:54;;;;;;;;;11.67;11.67;;;;;24.66;68.53;99366.78;6307864;20;3515004;-59
2023/06/11 09:18:25;;;;;;;;;12.33;11.33;;;;;24.61;68.82;99363.75;6312641;20;3523198;-59
2023/06/11 09:20:56;;;;;;;;;11.00;11.00;;;;;24.31;68.45;99366.53;6308953;20;3510653;-59
2023/06/11 09:23:30;;;;;;;;;11.67;10.00;;;;;24.75;68.72;99362.88;6313142;20;3511828;-59
2023/06/11 09:26:00;;;;;;;;;13.00;12.00;;;;;24.59;69.77;99363.09;6309841;20;3533599;-59
2023/06/11 09:28:37;;;;;;;;;10.50;10.50;;;;;24.79;70.15;99366.06;6274716;20;2789909;-58
2023/06/11 09:31:05;;;;;;;;;13.00;13.00;;;;;24.44;71.33;99365.88;6273438;20;3506530;-61
2023/06/11 09:33:33;;;;;;;;;13.67;11.67;;;;;24.50;71.38;99367.00;6274431;20;3537777;-59
2023/06/11 09:36:01;;;;;;;;;13.67;12.33;;;;;24.21;70.68;99374.19;6276417;20;3530519;-59
2023/06/11 09:38:36;;;;;;;;;14.00;14.00;;;;;24.20;71.58;99369.75;6277652;20;3539923;-59
2023/06/11 09:41:07;;;;;;;;;12.33;11.00;;;;;24.30;70.57;99374.94;6276694;20;2784767;-59
2023/06/11 09:43:35;;;;;;;;;16.00;13.00;;;;;24.50;70.82;99367.00;6310532;20;2483644;-59
2023/06/11 09:46:06;;;;;;;;;11.33;9.00;;;;;24.81;68.53;99372.22;6305844;20;3489824;-59
2023/06/11 09:48:34;;;;;;;;;17.00;14.00;;;;;25.48;66.89;99365.50;6311794;20;3550980;-59
2023/06/11 09:51:03;;;;;;;;;11.67;11.00;;;;;25.34;67.19;99371.94;6312683;20;3515933;-59
2023/06/11 09:53:33;;;;;;;;;11.00;11.00;;;;;24.12;69.62;99369.00;6302189;20;3520258;-58
2023/06/11 09:56:05;;;;;;;;;12.00;11.00;;;;;24.21;71.61;99374.19;6277067;20;3510658;-59
2023/06/11 09:58:40;;;;;;;;;12.33;11.00;;;;;23.66;72.66;99367.25;6279630;20;2786945;-58
2023/06/11 10:01:10;;;;;;;;;13.00;13.00;;;;;24.01;72.57;99362.09;6314093;20;2797318;-59
2023/06/11 10:03:39;;;;;;;;;12.00;10.00;;;;;23.93;71.35;99374.00;6307872;20;3517929;-59
2023/06/11 10:06:15;;;;;;;;;11.67;10.00;;;;;24.42;70.57;99378.91;6309293;20;2483638;-58
2023/06/11 10:08:48;;;;;;;;;14.33;14.33;;;;;24.12;70.56;99372.63;6305395;20;3533619;-58
2023/06/11 10:11:22;;;;;;;;;14.33;11.00;;;;;24.27;71.41;99370.69;6273242;20;3539902;-59
2023/06/11 10:14:00;;;;;;;;;12.00;11.00;;;;;24.50;68.91;99373.34;6273420;20;3522182;-59
2023/06/11 10:16:31;;;;;;;;;13.00;11.00;;;;;24.97;69.51;99379.38;6278510;20;2791997;-59
2023/06/11 10:19:08;;;;;;;;;12.00;11.00;;;;;24.78;68.94;99374.50;6307077;20;2483736;-58
2023/06/11 10:21:50;;;;;;;;;12.33;11.33;;;;;24.51;68.87;99371.44;6306784;20;3529445;-58
2023/06/11 10:24:24;;;;;;;;;14.67;12.00;;;;;25.14;67.84;99380.81;6277285;20;3504589;-58
2023/06/11 10:27:14;;;;;;;;;14.67;13.33;;;;;25.53;65.30;99376.75;6312301;20;3515971;-59
2023/06/11 10:29:47;;;;;;;;;12.33;12.33;;;;;25.27;66.04;99376.53;6307151;20;2484404;-59
2023/06/11 10:32:23;;;;;;;;;10.00;10.00;;;;;25.35;67.84;99371.72;6307801;20;3516088;-58
2023/06/11 10:35:00;;;;;;;;;15.00;12.67;;;;;25.19;66.61;99375.59;6311540;20;3520085;-58
2023/06/11 10:37:28;;;;;;;;;9.33;9.33;;;;;24.91;67.68;99369.19;6306780;20;3483763;-58
2023/06/11 10:39:57;;;;;;;;;12.00;11.33;;;;;25.08;67.36;99367.00;6309589;20;2491929;-58
2023/06/11 10:42:36;;;;;;;;;15.67;13.33;;;;;26.06;62.72;99368.91;6308189;20;2489965;-59
2023/06/11 10:45:13;;;;;;;;;12.50;12.00;;;;;26.03;64.38;99366.56;6305248;20;2789900;-58
2023/06/11 10:47:49;;;;;;;;;13.67;13.67;;;;;26.25;62.74;99359.06;6311087;20;3525285;-58
2023/06/11 10:50:32;;;;;;;;;13.00;13.00;;;;;26.54;64.36;99364.50;6306310;20;2798173;-58
2023/06/11 10:53:04;;;;;;;;;14.33;14.33;;;;;26.92;63.03;99365.69;6276971;20;2483669;-58
2023/06/11 10:55:34;;;;;;;;;11.33;10.33;;;;;26.33;62.65;99366.31;6300190;20;3517040;-58
2023/06/11 10:58:02;;;;;;;;;11.00;11.00;;;;;26.13;63.06;99357.09;6272727;20;3514325;-58
2023/06/11 11:00:34;;;;;;;;;10.67;10.67;;;;;26.86;64.63;99361.03;6310960;20;3515021;-58
2023/06/11 11:03:04;;;;;;;;;14.00;10.67;;;;;25.30;66.63;99359.63;6305966;20;3508616;-58
2023/06/11 11:05:32;;;;;;;;;13.00;11.67;;;;;25.78;65.42;99362.56;6275367;20;2483576;-59
2023/06/11 11:08:01;;;;;;;;;12.67;12.33;;;;;26.02;65.24;99370.38;6309429;20;3520185;-59
2023/06/11 11:10:29;;;;;;;;;12.33;12.33;;;;;25.61;65.40;99354.59;6306643;20;3527502;-62